createdAt,value
2019-05-28T00:01:01.972Z,6.87
2019-05-28T00:05:07.517Z,6.97
2019-05-28T00:09:12.300Z,7.35
2019-05-28T00:13:17.222Z,7.08
2019-05-28T00:17:22.144Z,7.95
2019-05-28T00:21:27.059Z,8.75
2019-05-28T00:25:32.155Z,9.43
2019-05-28T00:29:37.012Z,9.58
2019-05-28T00:33:42.130Z,9.45
2019-05-28T00:37:46.908Z,8.73
2019-05-28T00:41:51.935Z,9.53
2019-05-28T00:45:57.043Z,9.70
2019-05-28T00:50:03.484Z,9.93
2019-05-28T00:54:08.591Z,10.43
2019-05-28T00:58:14.819Z,9.45
2019-05-28T01:02:19.749Z,9.13
2019-05-28T01:06:24.873Z,9.03
2019-05-28T01:10:29.721Z,8.80
2019-05-28T01:14:35.783Z,6.95
2019-05-28T01:18:40.552Z,8.55
2019-05-28T01:22:45.400Z,7.58
2019-05-28T01:26:50.303Z,7.70
2019-05-28T01:31:00.393Z,8.20
2019-05-28T01:35:01.834Z,7.35
2019-05-28T01:39:08.778Z,6.83
2019-05-28T01:43:13.694Z,7.80
2019-05-28T01:47:18.711Z,6.87
2019-05-28T01:51:23.564Z,6.03
2019-05-28T01:55:28.990Z,7.28
2019-05-28T01:59:33.830Z,7.22
2019-05-28T02:03:38.696Z,6.45
2019-05-28T02:07:43.627Z,5.90
2019-05-28T02:11:48.532Z,6.22
2019-05-28T02:15:53.591Z,6.70
2019-05-28T02:19:58.486Z,6.22
2019-05-28T02:24:03.654Z,6.50
2019-05-28T02:28:08.630Z,5.60
2019-05-28T02:32:13.486Z,5.65
2019-05-28T02:36:18.417Z,6.55
2019-05-28T02:40:24.142Z,5.83
2019-05-28T02:44:29.319Z,6.05
2019-05-28T02:48:34.247Z,6.03
2019-05-28T02:52:40.735Z,6.58
2019-05-28T02:56:47.406Z,5.97
2019-05-28T03:00:54.437Z,5.50
2019-05-28T03:05:01.940Z,7.55
2019-05-28T03:09:07.751Z,6.62
2019-05-28T03:13:12.685Z,7.17
2019-05-28T03:17:19.635Z,6.25
2019-05-28T03:21:27.125Z,6.87
2019-05-28T03:25:34.816Z,5.35
2019-05-28T03:29:39.739Z,5.87
2019-05-28T03:33:46.064Z,6.55
2019-05-28T03:37:53.838Z,6.72
2019-05-28T03:41:58.695Z,6.97
2019-05-28T03:46:03.851Z,6.20
2019-05-28T03:50:10.063Z,7.10
2019-05-28T03:54:15.280Z,7.22
2019-05-28T03:58:20.199Z,6.53
2019-05-28T04:02:24.972Z,5.97
2019-05-28T04:06:29.747Z,6.42
2019-05-28T04:10:34.592Z,6.20
2019-05-28T04:14:39.680Z,6.15
2019-05-28T04:18:44.592Z,6.65
2019-05-28T04:22:49.719Z,7.28
2019-05-28T04:26:54.596Z,6.72
2019-05-28T04:30:59.416Z,6.47
2019-05-28T04:35:06.048Z,7.50
2019-05-28T04:39:10.892Z,6.87
2019-05-28T04:43:15.804Z,6.65
2019-05-28T04:47:20.929Z,6.37
2019-05-28T04:51:25.937Z,7.05
2019-05-28T04:55:30.912Z,6.72
2019-05-28T04:59:35.736Z,7.47
2019-05-28T05:03:40.664Z,7.12
2019-05-28T05:07:45.586Z,6.65
2019-05-28T05:11:50.428Z,7.78
2019-05-28T05:15:55.344Z,7.70
2019-05-28T05:20:00.196Z,7.85
2019-05-28T05:24:05.147Z,6.25
2019-05-28T05:28:10.040Z,7.60
2019-05-28T05:32:15.031Z,8.68
2019-05-28T05:36:19.936Z,7.20
2019-05-28T05:40:25.623Z,7.33
2019-05-28T05:44:30.522Z,7.05
2019-05-28T05:48:35.351Z,6.95
2019-05-28T05:52:40.245Z,6.22
2019-05-28T05:56:45.471Z,6.90
2019-05-28T06:00:50.335Z,4.97
2019-05-28T06:04:55.256Z,4.72
2019-05-28T06:09:00.135Z,4.85
2019-05-28T06:13:05.128Z,3.50
2019-05-28T06:17:10.338Z,3.65
2019-05-28T06:21:18.811Z,4.35
2019-05-28T06:25:22.449Z,3.22
2019-05-28T06:29:27.379Z,3.80
2019-05-28T06:33:32.760Z,3.90
2019-05-28T06:37:38.958Z,3.90
2019-05-28T06:41:43.762Z,4.92
2019-05-28T06:45:48.979Z,3.35
2019-05-28T06:49:53.861Z,4.33
2019-05-28T06:53:58.988Z,4.12
2019-05-28T06:58:03.951Z,5.35
2019-05-28T07:02:08.957Z,4.33
2019-05-28T07:06:13.837Z,4.53
2019-05-28T07:10:20.276Z,4.30
2019-05-28T07:14:25.212Z,4.97
2019-05-28T07:18:30.157Z,4.60
2019-05-28T07:22:35.101Z,5.35
2019-05-28T07:26:40.156Z,4.58
2019-05-28T07:30:45.174Z,4.70
2019-05-28T07:34:50.131Z,5.25
2019-05-28T07:38:55.994Z,3.92
2019-05-28T07:43:00.843Z,5.70
2019-05-28T07:47:05.775Z,6.42
2019-05-28T07:51:10.631Z,5.65
2019-05-28T07:55:15.495Z,6.75
2019-05-28T07:59:20.296Z,7.10
2019-05-28T08:03:25.297Z,6.72
2019-05-28T08:07:30.661Z,7.20
2019-05-28T08:11:35.575Z,7.60
2019-05-28T08:15:40.704Z,7.55
2019-05-28T08:19:45.688Z,6.47
2019-05-28T08:23:50.468Z,6.67
2019-05-28T08:27:55.396Z,7.08
2019-05-28T08:32:00.228Z,7.35
2019-05-28T08:36:05.160Z,7.22
2019-05-28T08:40:10.616Z,6.83
2019-05-28T08:44:15.488Z,6.47
2019-05-28T08:48:20.611Z,8.23
2019-05-28T08:52:25.545Z,7.03
2019-05-28T08:56:33.243Z,6.20
2019-05-28T09:00:39.811Z,7.25
2019-05-28T09:04:44.623Z,6.33
2019-05-28T09:08:49.651Z,8.50
2019-05-28T09:12:54.522Z,7.20
2019-05-28T09:16:59.366Z,6.87
2019-05-28T09:21:04.568Z,7.17
2019-05-28T09:25:10.907Z,9.00
2019-05-28T09:29:15.705Z,9.95
2019-05-28T09:33:20.642Z,11.75
2019-05-28T09:37:26.561Z,11.53
2019-05-28T09:41:31.372Z,10.98
2019-05-28T09:45:36.319Z,14.23
2019-05-28T09:49:41.103Z,13.78
2019-05-28T09:53:46.033Z,13.70
2019-05-28T09:57:52.024Z,12.80
2019-05-28T10:01:57.052Z,15.03
2019-05-28T10:06:16.098Z,14.63
2019-05-28T10:10:09.374Z,16.15
2019-05-28T10:14:14.675Z,13.72
2019-05-28T10:18:19.539Z,15.18
2019-05-28T10:22:24.392Z,17.35
2019-05-28T10:26:29.358Z,18.85
2019-05-28T10:30:34.816Z,19.98
2019-05-28T10:34:39.751Z,20.75
2019-05-28T10:38:44.594Z,19.30
2019-05-28T10:42:49.452Z,19.92
2019-05-28T10:46:54.248Z,20.05
2019-05-28T10:50:59.233Z,19.80
2019-05-28T10:55:04.672Z,18.48
2019-05-28T10:59:09.528Z,17.55
2019-05-28T11:03:14.532Z,16.95
2019-05-28T11:07:19.475Z,20.00
2019-05-28T11:11:27.272Z,19.27
2019-05-28T11:15:32.204Z,20.27
2019-05-28T11:19:37.024Z,21.15
2019-05-28T11:23:41.866Z,19.65
2019-05-28T11:27:46.800Z,19.70
2019-05-28T11:31:51.731Z,18.87
2019-05-28T11:35:56.680Z,18.05
2019-05-28T11:40:02.927Z,14.75
2019-05-28T11:44:08.060Z,12.43
2019-05-28T11:48:12.939Z,11.12
2019-05-28T11:52:17.879Z,9.28
2019-05-28T11:56:22.735Z,9.33
2019-05-28T12:00:28.444Z,7.78
2019-05-28T12:04:33.452Z,7.35
2019-05-28T12:08:38.413Z,7.70
2019-05-28T12:12:43.259Z,7.92
2019-05-28T12:16:48.049Z,7.58
2019-05-28T12:20:53.024Z,7.37
2019-05-28T12:24:57.864Z,7.87
2019-05-28T12:29:02.711Z,7.03
2019-05-28T12:33:07.639Z,8.38
2019-05-28T12:37:12.452Z,6.53
2019-05-28T12:41:17.370Z,6.33
2019-05-28T12:45:34.885Z,7.40
2019-05-28T12:49:29.573Z,6.90
2019-05-28T12:53:49.277Z,6.08
2019-05-28T12:57:40.865Z,6.60
2019-05-28T13:01:45.789Z,4.90
2019-05-28T13:05:50.756Z,5.12
2019-05-28T13:09:55.727Z,5.75
2019-05-28T13:14:00.662Z,5.30
2019-05-28T13:18:05.808Z,5.03
2019-05-28T13:22:10.801Z,5.12
2019-05-28T13:26:15.757Z,5.20
2019-05-28T13:30:20.933Z,5.12
2019-05-28T13:34:25.794Z,4.90
2019-05-28T13:38:30.672Z,7.28
2019-05-28T13:42:35.592Z,6.50
2019-05-28T13:46:40.437Z,6.78
2019-05-28T13:50:45.335Z,5.83
2019-05-28T13:54:50.235Z,7.12
2019-05-28T13:58:55.152Z,6.97
2019-05-28T14:03:00.070Z,4.10
2019-05-28T14:07:05.380Z,5.75
2019-05-28T14:11:10.135Z,5.08
2019-05-28T14:15:15.429Z,4.72
2019-05-28T14:19:20.353Z,5.53
2019-05-28T14:23:25.278Z,5.33
2019-05-28T14:27:30.229Z,6.65
2019-05-28T14:31:35.220Z,7.67
2019-05-28T14:35:40.256Z,8.33
2019-05-28T14:39:45.186Z,7.40
2019-05-28T14:43:50.072Z,7.72
2019-05-28T14:47:54.990Z,5.30
2019-05-28T14:51:59.936Z,6.78
2019-05-28T14:56:04.981Z,6.92
2019-05-28T15:00:10.945Z,6.90
2019-05-28T15:04:15.883Z,7.55
2019-05-28T15:08:20.742Z,8.28
2019-05-28T15:12:25.580Z,8.50
2019-05-28T15:16:30.423Z,7.87
2019-05-28T15:20:35.256Z,9.90
2019-05-28T15:24:40.191Z,7.28
2019-05-28T15:28:45.053Z,7.72
2019-05-28T15:32:49.956Z,6.25
2019-05-28T15:36:54.749Z,4.78
2019-05-28T15:40:59.607Z,3.37
2019-05-28T15:45:05.357Z,2.70
2019-05-28T15:49:10.211Z,2.50
2019-05-28T15:53:15.167Z,2.87
2019-05-28T15:57:20.029Z,2.70
2019-05-28T16:01:24.880Z,3.20
2019-05-28T16:05:29.840Z,3.45
2019-05-28T16:09:34.764Z,3.30
2019-05-28T16:13:39.687Z,3.22
2019-05-28T16:17:44.485Z,3.20
2019-05-28T16:21:49.345Z,3.00
2019-05-28T16:25:54.232Z,3.17
2019-05-28T16:29:59.117Z,4.20
2019-05-28T16:34:04.344Z,5.50
2019-05-28T16:38:09.193Z,5.47
2019-05-28T16:42:14.040Z,5.83
2019-05-28T16:46:19.463Z,5.65
2019-05-28T16:50:24.512Z,5.78
2019-05-28T16:54:29.327Z,5.70
2019-05-28T16:58:34.354Z,6.35
2019-05-28T17:02:40.608Z,6.25
2019-05-28T17:06:46.325Z,5.37
2019-05-28T17:10:51.252Z,6.33
2019-05-28T17:14:57.920Z,5.22
2019-05-28T17:19:02.923Z,6.28
2019-05-28T17:23:08.115Z,5.50
2019-05-28T17:27:13.055Z,6.60
2019-05-28T17:31:18.016Z,4.53
2019-05-28T17:35:22.970Z,4.00
2019-05-28T17:39:27.915Z,4.42
2019-05-28T17:43:32.860Z,4.25
2019-05-28T17:47:43.040Z,4.80
2019-05-28T17:51:44.210Z,5.12
2019-05-28T17:55:49.164Z,4.95
2019-05-28T17:59:53.981Z,4.10
2019-05-28T18:03:59.172Z,5.03
2019-05-28T18:08:04.492Z,4.67
2019-05-28T18:12:09.523Z,5.05
2019-05-28T18:16:14.535Z,4.55
2019-05-28T18:20:19.808Z,4.42
2019-05-28T18:24:24.883Z,4.33
2019-05-28T18:28:31.024Z,4.70
2019-05-28T18:32:35.893Z,3.92
2019-05-28T18:36:40.816Z,4.58
2019-05-28T18:40:45.692Z,3.75
2019-05-28T18:44:50.895Z,3.55
2019-05-28T18:48:55.820Z,3.30
2019-05-28T18:53:00.700Z,3.47
2019-05-28T18:57:05.747Z,3.83
2019-05-28T19:01:10.920Z,3.17
2019-05-28T19:05:16.591Z,4.00
2019-05-28T19:09:21.443Z,4.37
2019-05-28T19:13:26.312Z,4.17
2019-05-28T19:17:31.365Z,3.58
2019-05-28T19:21:36.295Z,3.50
2019-05-28T19:25:41.478Z,3.65
2019-05-28T19:29:50.418Z,3.40
2019-05-28T19:33:53.257Z,3.33
2019-05-28T19:37:59.167Z,3.30
2019-05-28T19:42:03.980Z,2.75
2019-05-28T19:46:09.016Z,2.77
2019-05-28T19:50:13.972Z,3.15
2019-05-28T19:54:18.928Z,2.72
2019-05-28T19:58:23.723Z,2.58
2019-05-28T20:02:28.612Z,2.40
2019-05-28T20:06:33.844Z,2.80
2019-05-28T20:10:38.837Z,2.22
2019-05-28T20:14:45.039Z,2.47
2019-05-28T20:18:49.852Z,2.37
2019-05-28T20:22:54.586Z,2.42
2019-05-28T20:26:59.524Z,2.40
2019-05-28T20:31:04.512Z,2.72
2019-05-28T20:35:09.766Z,2.50
2019-05-28T20:39:15.212Z,1.90
2019-05-28T20:43:22.144Z,2.10
2019-05-28T20:47:27.035Z,2.52
2019-05-28T20:51:31.818Z,2.35
2019-05-28T20:55:36.755Z,2.40
2019-05-28T20:59:41.608Z,2.10
2019-05-28T21:03:47.802Z,2.02
2019-05-28T21:07:53.457Z,2.40
2019-05-28T21:11:59.559Z,2.40
2019-05-28T21:16:04.592Z,2.25
2019-05-28T21:20:10.159Z,2.55
2019-05-28T21:24:15.297Z,2.60
2019-05-28T21:28:20.234Z,2.40
2019-05-28T21:32:27.317Z,2.65
2019-05-28T21:36:32.332Z,3.55
2019-05-28T21:40:37.214Z,3.40
2019-05-28T21:44:42.248Z,3.20
2019-05-28T21:48:47.484Z,3.15
2019-05-28T21:52:52.844Z,3.70
2019-05-28T21:56:59.339Z,3.02
2019-05-28T22:01:08.771Z,3.50
2019-05-28T22:05:13.996Z,4.05
2019-05-28T22:09:18.812Z,4.08
2019-05-28T22:13:23.652Z,4.40
2019-05-28T22:17:28.592Z,4.40
2019-05-28T22:21:33.415Z,4.10
2019-05-28T22:25:38.206Z,4.25
2019-05-28T22:29:43.199Z,4.33
2019-05-28T22:33:48.264Z,3.77
2019-05-28T22:37:53.081Z,4.67
2019-05-28T22:41:57.895Z,4.47
2019-05-28T22:46:03.289Z,4.65
2019-05-28T22:50:19.591Z,5.05
2019-05-28T22:54:16.236Z,5.22
2019-05-28T22:58:21.012Z,5.87
2019-05-28T23:02:25.753Z,5.25
2019-05-28T23:06:30.658Z,5.30
2019-05-28T23:10:35.471Z,5.90
2019-05-28T23:14:40.284Z,5.83
2019-05-28T23:18:45.167Z,5.35
2019-05-28T23:22:50.008Z,5.37
2019-05-28T23:26:54.931Z,6.05
2019-05-28T23:30:59.761Z,6.15
2019-05-28T23:35:06.550Z,6.55
2019-05-28T23:39:11.624Z,5.62
2019-05-28T23:43:16.443Z,5.85
2019-05-28T23:47:21.477Z,5.62
2019-05-28T23:51:26.296Z,5.58
2019-05-28T23:55:31.515Z,5.78
2019-05-28T23:59:36.413Z,6.50
